Time;durP1;ratioP1;P1;durP2;ratioP2;P2;SDS_P1;SDS_P2;PMS_P1;PMS_P2;Temp;Humidity;BMP_temperature;BMP_pressure;BME280_temperature;BME280_humidity;BME280_pressure;Samples;Min_cycle;Max_cycle;Signal;HPM_P1;HPM_P2
2021/04/02 00:00:17;;;;;;;30.20;3.05;;;6.20;99.90;;;;;;4998777;28;20393;-61
2021/04/02 00:02:43;;;;;;;;;;;6.20;99.90;;;;;;4999109;28;20425;-61
2021/04/02 00:05:15;;;;;;;16.55;3.67;;;6.20;99.90;;;;;;4998876;28;19910;-61
2021/04/02 00:07:41;;;;;;;27.48;5.13;;;6.30;99.90;;;;;;4998365;28;20115;-61
2021/04/02 00:10:13;;;;;;;18.38;3.17;;;6.20;99.90;;;;;;4998855;28;20049;-62
2021/04/02 00:12:39;;;;;;;22.70;3.92;;;6.30;99.90;;;;;;4997745;28;20070;-61
2021/04/02 00:15:25;;;;;;;16.77;3.40;;;6.20;99.90;;;;;;4996264;28;20495;-61
2021/04/02 00:17:51;;;;;;;14.93;2.67;;;6.20;99.90;;;;;;4996906;28;20395;-62
2021/04/02 00:20:19;;;;;;;30.45;4.18;;;6.20;99.90;;;;;;4997665;28;20053;-61
2021/04/02 00:22:45;;;;;;;17.20;3.28;;;6.20;99.90;;;;;;4997908;28;20244;-61
2021/04/02 00:25:13;;;;;;;21.13;3.63;;;6.20;99.90;;;;;;4998845;28;20057;-62
2021/04/02 00:27:39;;;;;;;21.23;2.80;;;6.20;99.90;;;;;;4997924;28;20048;-61
2021/04/02 00:30:22;;;;;;;19.60;4.07;;;6.30;99.90;;;;;;4998152;28;20034;-61
2021/04/02 00:32:48;;;;;;;18.10;3.08;;;6.20;99.90;;;;;;4998388;28;20041;-62
2021/04/02 00:35:14;;;;;;;18.27;3.47;;;6.20;99.90;;;;;;4996631;28;20151;-61
2021/04/02 00:37:41;;;;;;;23.02;3.55;;;6.20;99.90;;;;;;4997958;28;20448;-62
2021/04/02 00:40:12;;;;;;;23.50;3.80;;;6.20;99.90;;;;;;4997464;28;20076;-62
2021/04/02 00:42:38;;;;;;;31.95;4.13;;;6.20;99.90;;;;;;4997929;28;20565;-62
2021/04/02 00:45:05;;;;;;;28.30;4.70;;;6.20;99.90;;;;;;4997638;28;20053;-61
2021/04/02 00:47:31;;;;;;;22.35;4.45;;;6.20;99.90;;;;;;4996805;28;20489;-62
2021/04/02 00:49:56;;;;;;;28.67;4.60;;;6.20;99.90;;;;;;4997792;28;20026;-61
2021/04/02 00:52:22;;;;;;;26.60;4.68;;;6.10;99.90;;;;;;4997766;28;20025;-62
2021/04/02 00:54:48;;;;;;;19.30;3.75;;;6.10;99.90;;;;;;4997922;28;20111;-62
2021/04/02 00:57:14;;;;;;;24.42;4.75;;;6.20;99.90;;;;;;4996802;28;20042;-62
2021/04/02 00:59:41;;;;;;;30.20;4.25;;;6.10;99.90;;;;;;4998276;28;20618;-62
2021/04/02 01:02:07;;;;;;;27.17;3.97;;;6.10;99.90;;;;;;4998343;28;20080;-62
2021/04/02 01:04:33;;;;;;;18.45;4.75;;;6.00;99.90;;;;;;4997472;28;20444;-62
2021/04/02 01:06:59;;;;;;;27.00;4.80;;;6.00;99.90;;;;;;4996914;28;20092;-62
2021/04/02 01:09:25;;;;;;;28.13;4.55;;;6.00;99.90;;;;;;4996074;28;20038;-61
2021/04/02 01:11:51;;;;;;;24.42;4.03;;;6.00;99.90;;;;;;4998274;28;20340;-62
2021/04/02 01:14:17;;;;;;;33.92;4.43;;;5.90;99.90;;;;;;4997076;28;20034;-62
2021/04/02 01:16:44;;;;;;;34.28;6.28;;;5.90;99.90;;;;;;4997985;28;20037;-61
2021/04/02 01:19:28;;;;;;;17.17;5.13;;;5.90;99.90;;;;;;4997838;28;20509;-61
2021/04/02 01:21:57;;;;;;;28.08;5.07;;;5.90;99.90;;;;;;4997281;28;20029;-62
2021/04/02 01:24:23;;;;;;;22.00;4.07;;;5.80;99.90;;;;;;5000261;28;20041;-61
2021/04/02 01:26:55;;;;;;;31.70;6.22;;;5.80;99.90;;;;;;5000069;28;20037;-62
2021/04/02 01:29:40;;;;;;;31.52;6.13;;;5.90;99.90;;;;;;5001318;28;20112;-62
2021/04/02 01:32:10;;;;;;;29.33;4.30;;;5.90;99.90;;;;;;5002016;28;20026;-61
2021/04/02 01:34:40;;;;;;;29.77;5.80;;;5.80;99.90;;;;;;5002462;28;20050;-62
2021/04/02 01:37:11;;;;;;;33.10;6.32;;;5.80;99.90;;;;;;5000394;28;20116;-62
2021/04/02 01:39:41;;;;;;;25.98;4.25;;;5.80;99.90;;;;;;5001813;28;20037;-63
2021/04/02 01:42:09;;;;;;;30.33;5.18;;;5.80;99.90;;;;;;5000439;28;20033;-61
2021/04/02 01:44:37;;;;;;;17.52;3.90;;;5.80;99.90;;;;;;5000675;28;20424;-61
2021/04/02 01:47:05;;;;;;;33.40;6.53;;;5.70;99.90;;;;;;5001601;28;20099;-62
2021/04/02 01:49:32;;;;;;;21.25;4.53;;;5.70;99.90;;;;;;5000327;28;20057;-61
2021/04/02 01:51:58;;;;;;;30.27;4.50;;;5.60;99.90;;;;;;5000355;28;20034;-61
2021/04/02 01:54:25;;;;;;;26.15;4.38;;;5.60;99.90;;;;;;5001940;28;20065;-61
2021/04/02 01:56:53;;;;;;;26.27;4.78;;;5.50;99.90;;;;;;5001893;28;20034;-61
2021/04/02 01:59:22;;;;;;;21.60;4.47;;;5.50;99.90;;;;;;5000864;28;20068;-61
2021/04/02 02:01:49;;;;;;;34.25;3.83;;;5.50;99.90;;;;;;5000021;28;20482;-62
2021/04/02 02:04:21;;;;;;;24.80;4.75;;;5.50;99.90;;;;;;5000717;28;20064;-61
2021/04/02 02:06:50;;;;;;;27.20;4.35;;;5.50;99.90;;;;;;5000314;28;20141;-62
2021/04/02 02:09:20;;;;;;;32.90;4.60;;;5.40;99.90;;;;;;4999681;28;20604;-61
2021/04/02 02:11:50;;;;;;;31.58;4.68;;;5.40;99.90;;;;;;5001047;28;20046;-61
2021/04/02 02:14:18;;;;;;;33.33;5.88;;;5.40;99.90;;;;;;4998072;28;20561;-62
2021/04/02 02:16:48;;;;;;;27.13;4.53;;;5.40;99.90;;;;;;5000463;28;20389;-61
2021/04/02 02:19:18;;;;;;;22.02;4.07;;;5.30;99.90;;;;;;5000489;28;20046;-61
2021/04/02 02:21:46;;;;;;;24.77;4.05;;;5.30;99.90;;;;;;5001514;28;20041;-61
2021/04/02 02:24:13;;;;;;;26.80;4.75;;;5.30;99.90;;;;;;5001371;28;20612;-61
2021/04/02 02:26:41;;;;;;;24.02;4.47;;;5.30;99.90;;;;;;4999965;28;20815;-61
2021/04/02 02:29:08;;;;;;;28.35;4.80;;;5.30;99.90;;;;;;5000225;28;20030;-61
2021/04/02 02:31:34;;;;;;;29.52;4.30;;;5.30;99.90;;;;;;4999768;28;20145;-62
2021/04/02 02:34:02;;;;;;;27.70;4.72;;;5.30;99.90;;;;;;4998613;28;20494;-62
2021/04/02 02:36:29;;;;;;;30.38;5.30;;;5.20;99.90;;;;;;4999149;28;20610;-62
2021/04/02 02:38:56;;;;;;;26.60;4.55;;;5.20;99.90;;;;;;5000618;28;20399;-62
2021/04/02 02:41:26;;;;;;;22.95;4.75;;;5.20;99.90;;;;;;4999654;28;20160;-62
2021/04/02 02:43:53;;;;;;;;;;;5.20;99.90;;;;;;4996961;28;20555;-62
2021/04/02 02:46:19;;;;;;;23.33;4.22;;;5.10;99.90;;;;;;4998777;28;19921;-62
2021/04/02 02:48:47;;;;;;;22.45;4.43;;;5.10;99.90;;;;;;4998986;28;20060;-62
2021/04/02 02:51:13;;;;;;;18.38;3.67;;;5.10;99.90;;;;;;4999327;28;20069;-61
2021/04/02 02:53:41;;;;;;;24.10;3.67;;;5.00;99.90;;;;;;5000146;28;20477;-62
2021/04/02 02:56:08;;;;;;;19.45;3.95;;;5.00;99.90;;;;;;4999045;28;20489;-61
2021/04/02 02:58:37;;;;;;;24.13;4.80;;;5.00;99.90;;;;;;4999868;28;20034;-62
2021/04/02 03:01:04;;;;;;;23.30;3.97;;;5.10;99.90;;;;;;4999880;28;20034;-62
2021/04/02 03:03:30;;;;;;;20.50;3.78;;;5.00;99.90;;;;;;4999924;28;20042;-61
2021/04/02 03:05:59;;;;;;;25.40;4.55;;;5.10;99.90;;;;;;5000099;28;20033;-61
2021/04/02 03:08:30;;;;;;;18.52;3.55;;;5.10;99.90;;;;;;4998836;28;20100;-61
2021/04/02 03:10:58;;;;;;;33.85;7.00;;;5.10;99.90;;;;;;4999304;28;20096;-61
2021/04/02 03:13:25;;;;;;;19.08;4.88;;;5.00;99.90;;;;;;5000797;28;20092;-61
2021/04/02 03:15:55;;;;;;;18.83;4.22;;;5.10;99.90;;;;;;4998897;28;20091;-61
2021/04/02 03:18:21;;;;;;;;;;;5.10;99.90;;;;;;5000042;28;20366;-62
2021/04/02 03:20:49;;;;;;;18.77;4.45;;;5.10;99.90;;;;;;4998847;28;20400;-61
2021/04/02 03:23:16;;;;;;;18.50;4.60;;;5.10;99.90;;;;;;4999275;28;20037;-61
2021/04/02 03:25:45;;;;;;;28.85;4.75;;;5.00;99.90;;;;;;4999385;28;20084;-61
2021/04/02 03:28:12;;;;;;;25.80;5.03;;;5.10;99.90;;;;;;4997147;28;20075;-61
2021/04/02 03:30:39;;;;;;;29.65;6.20;;;5.10;99.90;;;;;;4999413;28;20161;-62
2021/04/02 03:33:15;;;;;;;21.63;4.70;;;5.10;99.90;;;;;;4997776;28;20587;-61
2021/04/02 03:35:44;;;;;;;29.98;5.38;;;5.10;99.90;;;;;;4998673;28;20033;-61
2021/04/02 03:38:13;;;;;;;26.75;4.90;;;5.10;99.90;;;;;;4999272;28;20520;-61
2021/04/02 03:40:40;;;;;;;26.58;5.57;;;5.00;99.90;;;;;;4999085;28;20038;-62
2021/04/02 03:43:07;;;;;;;21.88;4.93;;;5.10;99.90;;;;;;4997828;28;20022;-61
2021/04/02 03:45:34;;;;;;;25.85;4.43;;;5.10;99.90;;;;;;4997212;28;20146;-61
2021/04/02 03:48:02;;;;;;;27.40;4.25;;;5.10;99.90;;;;;;4998650;28;20254;-61
2021/04/02 03:50:32;;;;;;;35.90;6.38;;;5.10;99.90;;;;;;4998544;28;20033;-61
2021/04/02 03:53:08;;;;;;;22.35;5.80;;;5.10;99.90;;;;;;4998145;28;20073;-61
2021/04/02 03:55:39;;;;;;;27.02;6.43;;;5.10;99.90;;;;;;4995906;28;20053;-61
2021/04/02 03:58:08;;;;;;;28.55;5.47;;;5.10;99.90;;;;;;4999230;28;20034;-61
2021/04/02 04:00:41;;;;;;;24.83;5.28;;;5.10;99.90;;;;;;4997232;28;20034;-61
2021/04/02 04:03:08;;;;;;;23.35;5.97;;;5.10;99.90;;;;;;4999257;28;20613;-61
2021/04/02 04:05:36;;;;;;;20.67;4.95;;;5.10;99.90;;;;;;4998303;28;20033;-61
2021/04/02 04:08:07;;;;;;;26.35;5.13;;;5.10;99.90;;;;;;4998983;28;20041;-61
2021/04/02 04:10:34;;;;;;;25.48;6.60;;;5.10;99.90;;;;;;4998733;28;20080;-61
2021/04/02 04:13:02;;;;;;;24.40;5.53;;;5.10;99.90;;;;;;4998270;28;20037;-61
2021/04/02 04:15:28;;;;;;;16.45;5.25;;;5.10;99.90;;;;;;4997736;28;20472;-61
2021/04/02 04:17:55;;;;;;;19.80;4.70;;;5.00;99.90;;;;;;4997472;28;20103;-61
2021/04/02 04:20:23;;;;;;;31.05;4.72;;;5.10;99.90;;;;;;5000020;28;20089;-61
2021/04/02 04:22:50;;;;;;;13.38;4.85;;;5.00;99.90;;;;;;4997807;28;20460;-61
2021/04/02 04:25:22;;;;;;;16.65;4.90;;;5.10;99.90;;;;;;4998745;28;20037;-61
2021/04/02 04:27:48;;;;;;;22.88;5.88;;;5.00;99.90;;;;;;4997932;28;20037;-61
2021/04/02 04:30:16;;;;;;;23.90;6.95;;;5.00;99.90;;;;;;4997286;28;20018;-61
2021/04/02 04:32:43;;;;;;;22.17;5.05;;;5.00;99.90;;;;;;4998162;28;20111;-61
2021/04/02 04:35:11;;;;;;;30.38;5.50;;;5.00;99.90;;;;;;4995287;28;20029;-61
2021/04/02 04:37:39;;;;;;;21.17;5.20;;;4.90;99.90;;;;;;4998278;28;20725;-61
2021/04/02 04:40:07;;;;;;;24.40;5.28;;;4.90;99.90;;;;;;4997312;28;20512;-61
2021/04/02 04:42:36;;;;;;;23.55;4.95;;;4.90;99.90;;;;;;4997197;28;20556;-61
2021/04/02 04:45:05;;;;;;;22.08;5.47;;;4.90;99.90;;;;;;4997574;28;20390;-61
2021/04/02 04:47:31;;;;;;;26.27;5.82;;;4.90;99.90;;;;;;4997075;28;20057;-61
2021/04/02 04:49:57;;;;;;;15.82;4.05;;;4.90;99.90;;;;;;4996056;28;20553;-61
2021/04/02 04:52:24;;;;;;;21.60;5.10;;;4.90;99.90;;;;;;4996867;28;20026;-61
2021/04/02 04:54:53;;;;;;;19.30;5.28;;;4.90;99.90;;;;;;4997979;28;20034;-61
2021/04/02 04:57:21;;;;;;;20.70;4.78;;;4.90;99.90;;;;;;4997260;28;20408;-61
2021/04/02 04:59:50;;;;;;;23.35;5.22;;;4.90;99.90;;;;;;4987966;28;20014;-61
2021/04/02 05:02:18;;;;;;;19.63;4.63;;;4.80;99.90;;;;;;4997476;28;20029;-61
2021/04/02 05:04:46;;;;;;;18.15;5.00;;;4.80;99.90;;;;;;4997519;28;20823;-61
2021/04/02 05:07:13;;;;;;;22.73;4.90;;;4.80;99.90;;;;;;4996802;28;20038;-61
2021/04/02 05:09:41;;;;;;;20.25;4.95;;;4.80;99.90;;;;;;4998348;28;20033;-61
2021/04/02 05:12:09;;;;;;;18.80;6.50;;;4.80;99.90;;;;;;4995778;28;20695;-61
2021/04/02 05:14:37;;;;;;;23.40;6.57;;;4.80;99.90;;;;;;4997709;28;20029;-61
2021/04/02 05:17:04;;;;;;;17.63;5.38;;;4.80;99.90;;;;;;4997583;28;20389;-61
2021/04/02 05:19:31;;;;;;;22.92;5.38;;;4.80;99.90;;;;;;4996289;28;20111;-62
2021/04/02 05:21:56;;;;;;;25.23;6.78;;;4.80;99.90;;;;;;4994916;28;20037;-61
2021/04/02 05:24:23;;;;;;;25.30;6.85;;;4.80;99.90;;;;;;4990117;28;20469;-61
2021/04/02 05:26:50;;;;;;;24.00;6.47;;;4.90;99.90;;;;;;4997392;28;20060;-61
2021/04/02 05:29:16;;;;;;;23.92;6.70;;;4.90;99.90;;;;;;4997093;28;20030;-61
2021/04/02 05:31:44;;;;;;;26.60;7.28;;;4.90;99.90;;;;;;4997924;28;20120;-61
2021/04/02 05:34:10;;;;;;;27.58;7.68;;;5.00;99.90;;;;;;4997152;28;20492;-61
2021/04/02 05:36:36;;;;;;;22.65;7.00;;;5.00;99.90;;;;;;4997001;28;20034;-61
2021/04/02 05:39:02;;;;;;;26.08;6.35;;;5.00;99.90;;;;;;4997598;28;20490;-61
2021/04/02 05:41:34;;;;;;;22.90;7.28;;;5.00;99.90;;;;;;4997061;28;20041;-61
2021/04/02 05:44:07;;;;;;;24.10;6.47;;;5.10;99.90;;;;;;4997070;28;20058;-61
2021/04/02 05:46:36;;;;;;;24.75;7.03;;;5.20;99.90;;;;;;4994381;28;20084;-61
2021/04/02 05:49:05;;;;;;;24.17;6.47;;;5.20;99.90;;;;;;4995903;28;20034;-61
2021/04/02 05:51:32;;;;;;;24.23;6.82;;;5.20;99.90;;;;;;4997351;28;20424;-61
2021/04/02 05:53:59;;;;;;;29.90;6.75;;;5.30;99.90;;;;;;4995734;28;20038;-61
2021/04/02 05:56:26;;;;;;;30.15;7.68;;;5.40;99.90;;;;;;4996913;28;20034;-62
2021/04/02 05:58:53;;;;;;;21.70;5.82;;;5.40;99.90;;;;;;4995815;28;20065;-61
2021/04/02 06:01:19;;;;;;;19.08;5.95;;;5.50;99.90;;;;;;4996699;28;20723;-61
2021/04/02 06:03:46;;;;;;;17.70;5.53;;;5.60;99.90;;;;;;4995773;28;20997;-61
2021/04/02 06:06:13;;;;;;;21.60;6.90;;;5.60;99.90;;;;;;4996562;28;20698;-61
2021/04/02 06:08:44;;;;;;;22.40;5.63;;;5.70;99.90;;;;;;4990894;28;20476;-62
2021/04/02 06:11:11;;;;;;;25.98;6.45;;;5.80;99.90;;;;;;4999129;28;20049;-61
2021/04/02 06:13:37;;;;;;;21.52;5.80;;;5.90;99.90;;;;;;4999824;28;20435;-61
2021/04/02 06:16:03;;;;;;;25.70;6.43;;;6.10;99.90;;;;;;5000425;28;20026;-61
2021/04/02 06:18:29;;;;;;;21.40;5.53;;;6.20;99.90;;;;;;4999844;28;20033;-61
2021/04/02 06:20:56;;;;;;;20.92;5.25;;;6.30;99.90;;;;;;4999806;28;20033;-62
2021/04/02 06:23:23;;;;;;;21.48;5.78;;;6.40;99.90;;;;;;4999678;28;20614;-62
2021/04/02 06:25:57;;;;;;;31.48;6.25;;;6.60;99.90;;;;;;4997574;28;20045;-62
2021/04/02 06:28:35;;;;;;;26.40;7.00;;;6.60;99.90;;;;;;5000449;28;20038;-62
2021/04/02 06:31:06;;;;;;;20.50;4.18;;;6.60;99.90;;;;;;4998114;28;20030;-61
2021/04/02 06:33:46;;;;;;;20.08;5.97;;;6.60;99.90;;;;;;4997644;28;20030;-62
2021/04/02 06:36:13;;;;;;;;;;;6.60;99.90;;;;;;5006446;28;20384;-62
2021/04/02 06:38:41;;;;;;;26.67;6.07;;;6.70;99.90;;;;;;4997620;28;19917;-62
2021/04/02 06:41:07;;;;;;;18.73;4.40;;;6.70;99.90;;;;;;4997768;28;20464;-61
2021/04/02 06:43:38;;;;;;;22.00;4.35;;;6.70;99.90;;;;;;4998492;28;20022;-61
2021/04/02 06:46:05;;;;;;;23.38;4.63;;;6.80;99.90;;;;;;4998265;28;20026;-61
2021/04/02 06:48:31;;;;;;;16.25;3.97;;;6.80;99.90;;;;;;4998669;28;20054;-62
2021/04/02 06:50:57;;;;;;;22.90;5.30;;;6.90;99.90;;;;;;4998541;28;20030;-62
2021/04/02 06:53:24;;;;;;;20.50;4.82;;;6.80;99.90;;;;;;4998525;28;20521;-62
2021/04/02 06:55:51;;;;;;;25.85;4.25;;;6.90;99.90;;;;;;4999320;28;20537;-62
2021/04/02 06:58:18;;;;;;;20.52;4.43;;;7.00;99.90;;;;;;4998983;28;20034;-61
2021/04/02 07:00:44;;;;;;;22.33;4.53;;;6.90;99.90;;;;;;4999733;28;20053;-62
2021/04/02 07:03:13;;;;;;;20.75;4.57;;;6.90;99.90;;;;;;4998619;28;20411;-61
2021/04/02 07:05:40;;;;;;;22.90;4.78;;;6.90;99.90;;;;;;4996892;28;20433;-62
2021/04/02 07:08:07;;;;;;;23.92;5.03;;;7.00;99.90;;;;;;4997826;28;20124;-62
2021/04/02 07:10:40;;;;;;;22.27;4.03;;;7.00;99.90;;;;;;4999795;28;20605;-62
2021/04/02 07:13:07;;;;;;;16.33;3.60;;;7.10;99.90;;;;;;4999210;28;20029;-62
2021/04/02 07:15:34;;;;;;;16.38;3.58;;;7.20;99.90;;;;;;4998641;28;20064;-61
2021/04/02 07:18:03;;;;;;;23.17;4.03;;;7.20;99.90;;;;;;4999260;28;20656;-62
2021/04/02 07:20:29;;;;;;;21.33;4.18;;;7.30;99.90;;;;;;4997447;28;20528;-61
2021/04/02 07:22:56;;;;;;;15.77;4.40;;;7.30;99.90;;;;;;4997778;28;20030;-61
2021/04/02 07:25:23;;;;;;;17.10;3.50;;;7.40;99.90;;;;;;4997450;28;20045;-61
2021/04/02 07:27:51;;;;;;;22.23;3.63;;;7.50;99.90;;;;;;4995442;28;20144;-62
2021/04/02 07:30:18;;;;;;;29.90;3.30;;;7.60;99.90;;;;;;4998600;28;20029;-63
2021/04/02 07:32:45;;;;;;;21.55;3.90;;;7.60;99.90;;;;;;4998032;28;20040;-63
2021/04/02 07:35:19;;;;;;;17.27;3.13;;;7.60;99.90;;;;;;4997910;28;20033;-63
2021/04/02 07:37:56;;;;;;;20.17;4.00;;;7.70;99.90;;;;;;4999198;28;20385;-64
2021/04/02 07:40:34;;;;;;;21.60;3.63;;;7.90;99.90;;;;;;4997713;28;20490;-63
2021/04/02 07:43:04;;;;;;;19.67;3.45;;;7.80;99.90;;;;;;4996869;28;20786;-63
2021/04/02 07:45:33;;;;;;;22.90;3.45;;;7.80;99.90;;;;;;4998669;28;20041;-63
2021/04/02 07:48:23;;;;;;;20.70;5.20;;;8.00;99.90;;;;;;4995796;28;20041;-64
2021/04/02 07:51:10;;;;;;;22.45;3.10;;;8.10;99.90;;;;;;4998593;28;20575;-63
2021/04/02 07:53:36;;;;;;;16.70;2.88;;;8.00;99.90;;;;;;4995195;28;20034;-63
2021/04/02 07:56:09;;;;;;;13.18;2.92;;;8.00;99.90;;;;;;4997141;28;20041;-61
2021/04/02 07:58:45;;;;;;;15.20;3.25;;;8.00;99.90;;;;;;4993901;28;20556;-61
2021/04/02 08:01:11;;;;;;;13.98;2.72;;;8.10;99.90;;;;;;4996197;28;20038;-60
2021/04/02 08:03:36;;;;;;;15.57;3.08;;;8.20;99.90;;;;;;4995421;28;20093;-62
2021/04/02 08:06:10;;;;;;;21.60;3.58;;;8.30;99.90;;;;;;4994013;28;20804;-67
2021/04/02 08:08:55;;;;;;;16.30;3.00;;;8.30;99.90;;;;;;5011299;28;20061;-67
2021/04/02 08:11:20;;;;;;;11.02;2.92;;;8.30;99.90;;;;;;4996259;28;20112;-67
2021/04/02 08:13:58;;;;;;;13.55;2.67;;;8.40;99.90;;;;;;4989946;28;20029;-70
2021/04/02 08:16:33;;;;;;;15.48;3.22;;;8.40;99.90;;;;;;4997722;28;20030;-70
2021/04/02 08:19:15;;;;;;;14.88;2.20;;;8.50;99.90;;;;;;4994284;28;20077;-70
2021/04/02 08:21:45;;;;;;;16.88;3.00;;;8.40;99.90;;;;;;4996672;28;20029;-69
2021/04/02 08:24:13;;;;;;;17.77;2.63;;;8.50;99.90;;;;;;4995108;28;20145;-69
2021/04/02 08:26:40;;;;;;;14.27;2.70;;;8.50;99.90;;;;;;4991071;28;20073;-70
2021/04/02 08:29:09;;;;;;;7.53;2.35;;;8.50;99.90;;;;;;4997795;28;20029;-70
2021/04/02 08:31:38;;;;;;;13.23;2.78;;;8.60;99.90;;;;;;4995181;28;20139;-70
2021/04/02 08:34:04;;;;;;;14.80;2.78;;;8.80;99.90;;;;;;4994636;28;20034;-63
2021/04/02 08:36:30;;;;;;;10.77;2.72;;;8.70;99.90;;;;;;4998006;28;20032;-63
2021/04/02 08:38:56;;;;;;;15.52;3.08;;;8.80;99.90;;;;;;4997759;28;20036;-63
2021/04/02 08:41:25;;;;;;;17.08;2.53;;;8.90;99.90;;;;;;4996105;28;20032;-63
2021/04/02 08:43:51;;;;;;;15.77;3.25;;;9.10;99.90;;;;;;4998515;28;20084;-63
2021/04/02 08:46:18;;;;;;;8.75;2.05;;;9.30;99.90;;;;;;4998316;28;20030;-63
2021/04/02 08:48:45;;;;;;;19.83;3.25;;;9.50;99.90;;;;;;4999255;28;20061;-62
2021/04/02 08:51:21;;;;;;;16.05;3.03;;;9.30;99.90;;;;;;4996648;28;20037;-63
2021/04/02 08:53:47;;;;;;;22.52;3.95;;;9.10;99.90;;;;;;4997089;28;20030;-63
2021/04/02 08:56:20;;;;;;;19.33;3.28;;;9.20;99.90;;;;;;4993469;28;20018;-63
2021/04/02 08:58:48;;;;;;;13.80;2.65;;;9.20;99.90;;;;;;4996128;28;20425;-63
2021/04/02 09:01:18;;;;;;;14.75;2.95;;;9.10;99.90;;;;;;4997801;28;20057;-63
2021/04/02 09:03:45;;;;;;;26.67;3.92;;;9.10;99.90;;;;;;4999196;28;20018;-63
2021/04/02 09:06:11;;;;;;;14.10;3.45;;;8.90;99.90;;;;;;4998980;28;20053;-63
2021/04/02 09:08:38;;;;;;;14.75;3.13;;;8.80;99.90;;;;;;4998663;28;20044;-64
2021/04/02 09:11:11;;;;;;;14.57;3.05;;;8.80;99.90;;;;;;5013525;28;20028;-64
2021/04/02 09:13:37;;;;;;;14.93;3.38;;;8.90;99.90;;;;;;4997672;28;20033;-61
2021/04/02 09:16:11;;;;;;;15.18;3.10;;;9.00;99.90;;;;;;4998015;28;20030;-61
2021/04/02 09:18:57;;;;;;;15.35;3.35;;;9.00;99.90;;;;;;4996675;28;20036;-62
2021/04/02 09:21:24;;;;;;;7.78;2.60;;;8.90;99.90;;;;;;4996337;28;20038;-61
2021/04/02 09:23:53;;;;;;;12.98;2.83;;;8.80;99.90;;;;;;4998425;28;20540;-61
2021/04/02 09:26:21;;;;;;;15.35;3.88;;;8.80;99.90;;;;;;4999242;28;20030;-62
2021/04/02 09:28:48;;;;;;;9.82;2.35;;;9.10;99.90;;;;;;4996788;28;20506;-62
2021/04/02 09:31:18;;;;;;;17.27;3.38;;;9.00;99.90;;;;;;4996976;28;20093;-62
2021/04/02 09:33:45;;;;;;;14.88;2.88;;;9.20;99.90;;;;;;4999116;28;20033;-62
2021/04/02 09:36:13;;;;;;;20.55;3.80;;;9.30;99.90;;;;;;4998042;28;20045;-62
2021/04/02 09:38:40;;;;;;;16.70;3.13;;;9.30;99.90;;;;;;4994095;28;20030;-61
2021/04/02 09:41:07;;;;;;;9.63;2.70;;;9.20;99.90;;;;;;4996349;28;20045;-61
2021/04/02 09:43:51;;;;;;;22.52;3.75;;;9.40;99.90;;;;;;4989823;28;20037;-62
2021/04/02 09:46:33;;;;;;;22.02;4.40;;;9.80;99.90;;;;;;5000764;28;20022;-61
2021/04/02 09:49:15;;;;;;;21.70;3.67;;;10.10;99.90;;;;;;5001668;28;20064;-62
2021/04/02 09:51:43;;;;;;;10.80;3.08;;;10.50;99.90;;;;;;5000341;28;20512;-61
2021/04/02 09:54:09;;;;;;;15.98;2.70;;;10.50;99.90;;;;;;5002571;28;20033;-62
2021/04/02 09:56:37;;;;;;;13.68;3.15;;;10.20;99.90;;;;;;5001119;28;20120;-61
2021/04/02 09:59:04;;;;;;;14.23;3.53;;;9.80;99.90;;;;;;4998431;28;20038;-61
2021/04/02 10:01:34;;;;;;;17.65;3.60;;;9.60;99.90;;;;;;5000173;28;20168;-62
2021/04/02 10:04:00;;;;;;;15.35;3.97;;;9.40;99.90;;;;;;4999681;28;20029;-62
2021/04/02 10:06:26;;;;;;;15.10;4.35;;;9.50;99.90;;;;;;5000775;28;20056;-62
2021/04/02 10:08:52;;;;;;;18.85;4.45;;;9.70;99.90;;;;;;5000666;28;20527;-62
2021/04/02 10:11:18;;;;;;;15.77;3.95;;;9.60;99.90;;;;;;4998783;28;20556;-62
2021/04/02 10:13:44;;;;;;;16.55;4.68;;;9.50;99.90;;;;;;4999596;28;20034;-62
2021/04/02 10:16:10;;;;;;;16.33;5.85;;;9.60;99.90;;;;;;4999526;28;20049;-62
2021/04/02 10:18:37;;;;;;;14.77;4.97;;;9.80;99.90;;;;;;4999192;28;20033;-62
2021/04/02 10:21:04;;;;;;;19.90;6.50;;;10.00;99.90;;;;;;5001004;28;20636;-62
2021/04/02 10:23:31;;;;;;;18.63;5.75;;;10.00;99.90;;;;;;4999285;28;20504;-62
2021/04/02 10:25:57;;;;;;;21.98;6.35;;;10.10;99.90;;;;;;4998611;28;20223;-62
2021/04/02 10:28:23;;;;;;;22.50;5.95;;;10.20;99.90;;;;;;5000056;28;20501;-62
2021/04/02 10:30:51;;;;;;;21.73;7.40;;;10.30;99.90;;;;;;4998540;28;20034;-62
2021/04/02 10:33:17;;;;;;;23.02;7.20;;;10.60;99.90;;;;;;4995692;28;20100;-62
2021/04/02 10:35:43;;;;;;;24.23;8.05;;;10.70;99.90;;;;;;4999610;28;20069;-62
2021/04/02 10:38:09;;;;;;;29.42;11.10;;;11.00;99.90;;;;;;4998446;28;20037;-62
2021/04/02 10:40:35;;;;;;;27.95;10.23;;;11.20;99.90;;;;;;4999542;28;20068;-62
2021/04/02 10:43:01;;;;;;;24.70;8.68;;;11.30;99.90;;;;;;4997705;28;20038;-62
2021/04/02 10:45:27;;;;;;;27.80;10.48;;;10.90;99.90;;;;;;5000165;28;20524;-62
2021/04/02 10:47:53;;;;;;;34.72;13.15;;;10.60;99.90;;;;;;4998328;28;20049;-62
2021/04/02 10:50:19;;;;;;;27.05;9.75;;;10.70;99.90;;;;;;4999621;28;20034;-62
2021/04/02 10:52:45;;;;;;;36.33;9.93;;;11.20;99.90;;;;;;5000301;28;20050;-62
2021/04/02 10:55:12;;;;;;;32.80;10.20;;;11.30;99.90;;;;;;4999581;28;20053;-62
2021/04/02 10:57:38;;;;;;;25.15;9.13;;;11.60;99.90;;;;;;5000361;28;20121;-63
2021/04/02 11:00:06;;;;;;;20.98;8.77;;;12.00;99.90;;;;;;4997036;28;20382;-63
2021/04/02 11:02:32;;;;;;;28.25;8.65;;;12.30;99.90;;;;;;4994817;28;20033;-62
2021/04/02 11:04:58;;;;;;;33.05;12.40;;;12.50;99.90;;;;;;4998867;28;20076;-62
2021/04/02 11:07:24;;;;;;;37.15;12.50;;;12.50;99.90;;;;;;4999046;28;20041;-62
2021/04/02 11:09:50;;;;;;;38.92;14.60;;;12.40;99.90;;;;;;4999503;28;20449;-63
2021/04/02 11:12:15;;;;;;;47.85;20.73;;;12.80;99.90;;;;;;4999580;28;20152;-63
2021/04/02 11:14:41;;;;;;;52.20;22.65;;;13.20;99.90;;;;;;5000294;28;20398;-63
2021/04/02 11:17:07;;;;;;;90.75;34.15;;;13.30;99.90;;;;;;4992254;28;20029;-62
2021/04/02 11:19:33;;;;;;;76.40;31.42;;;13.20;99.90;;;;;;4997879;28;20603;-63
2021/04/02 11:21:59;;;;;;;22.77;7.97;;;13.40;99.90;;;;;;4997054;28;20147;-63
2021/04/02 11:24:25;;;;;;;20.88;6.47;;;13.10;99.90;;;;;;5000487;28;20026;-63
2021/04/02 11:26:51;;;;;;;20.50;6.57;;;13.30;99.90;;;;;;4997595;28;20558;-63
2021/04/02 11:29:17;;;;;;;21.80;6.95;;;13.30;99.90;;;;;;5000105;28;20034;-63
2021/04/02 11:31:43;;;;;;;22.38;6.93;;;12.70;99.90;;;;;;5001379;28;20038;-62
2021/04/02 11:34:08;;;;;;;24.98;6.47;;;12.40;99.90;;;;;;4999442;28;20295;-62
2021/04/02 11:36:34;;;;;;;28.08;7.30;;;12.50;99.90;;;;;;5001465;28;20026;-63
2021/04/02 11:39:01;;;;;;;30.70;7.55;;;12.50;99.90;;;;;;4997837;28;20568;-63
2021/04/02 11:41:26;;;;;;;22.15;6.45;;;12.60;99.90;;;;;;4999167;28;20041;-64
2021/04/02 11:43:52;;;;;;;25.05;6.72;;;12.80;99.90;;;;;;4983132;28;20037;-63
2021/04/02 11:46:19;;;;;;;27.85;7.57;;;13.00;99.90;;;;;;4998886;28;20135;-62
2021/04/02 11:48:44;;;;;;;19.70;6.45;;;12.80;99.90;;;;;;4998698;28;20050;-63
2021/04/02 11:51:10;;;;;;;28.38;6.85;;;13.00;99.90;;;;;;4994865;28;20659;-62
2021/04/02 11:53:37;;;;;;;28.73;7.75;;;12.90;99.90;;;;;;4995674;28;20508;-62
2021/04/02 11:56:03;;;;;;;26.02;7.75;;;12.80;99.90;;;;;;4995907;28;20032;-62
2021/04/02 11:58:29;;;;;;;26.02;7.57;;;13.10;99.90;;;;;;4995252;28;20069;-62
2021/04/02 12:00:55;;;;;;;27.33;7.72;;;13.50;99.90;;;;;;4996831;28;20559;-62
2021/04/02 12:03:21;;;;;;;24.38;6.80;;;13.60;99.90;;;;;;4997721;28;20073;-63
2021/04/02 12:05:48;;;;;;;18.30;6.10;;;13.30;99.90;;;;;;4998543;28;20140;-62
2021/04/02 12:08:13;;;;;;;23.60;7.70;;;13.40;99.90;;;;;;4995751;28;20499;-62
2021/04/02 12:10:40;;;;;;;24.40;6.95;;;12.90;99.90;;;;;;4997790;28;20033;-62
2021/04/02 12:13:06;;;;;;;27.52;6.53;;;12.60;99.90;;;;;;4995811;28;20524;-62
2021/04/02 12:15:32;;;;;;;26.05;8.02;;;12.30;99.90;;;;;;4998454;28;20571;-62
2021/04/02 12:17:57;;;;;;;24.88;6.03;;;12.60;99.90;;;;;;4995705;28;20046;-62
2021/04/02 12:20:23;;;;;;;23.13;6.47;;;13.00;99.90;;;;;;4997510;28;20524;-67
2021/04/02 12:22:50;;;;;;;23.52;6.80;;;12.80;99.90;;;;;;4997728;28;20478;-62
2021/04/02 12:25:16;;;;;;;22.15;5.50;;;13.20;99.90;;;;;;4992661;28;20029;-64
2021/04/02 12:27:42;;;;;;;20.83;6.05;;;13.60;99.90;;;;;;4990973;28;20851;-63
2021/04/02 12:30:15;;;;;;;18.73;5.07;;;13.90;99.90;;;;;;4992776;28;20033;-63
2021/04/02 12:32:41;;;;;;;14.00;4.55;;;13.70;99.90;;;;;;4996258;28;20925;-62
2021/04/02 12:35:09;;;;;;;21.20;6.63;;;13.50;99.90;;;;;;4996432;28;20413;-62
2021/04/02 12:37:35;;;;;;;16.42;4.97;;;13.70;99.90;;;;;;4997318;28;20482;-62
2021/04/02 12:40:03;;;;;;;16.88;3.90;;;14.00;99.90;;;;;;4996706;28;20037;-62
2021/04/02 12:42:29;;;;;;;18.00;5.57;;;13.80;99.90;;;;;;4997440;28;20111;-63
2021/04/02 12:44:55;;;;;;;14.77;4.38;;;13.80;99.90;;;;;;4996832;28;20041;-62
2021/04/02 12:47:21;;;;;;;16.88;4.20;;;14.10;99.90;;;;;;4996480;28;20133;-63
2021/04/02 12:49:47;;;;;;;20.90;4.15;;;14.20;99.90;;;;;;4991679;28;20057;-62